Time;durP1;ratioP1;P1;durP2;ratioP2;P2;SDS_P1;SDS_P2;PMS_P1;PMS_P2;Temp;Humidity;BMP_temperature;BMP_pressure;BME280_temperature;BME280_humidity;BME280_pressure;Samples;Min_cycle;Max_cycle;Signal;HPM_P1;HPM_P2
2022/10/22 00:00:06;;;;;;;5.28;2.60;;;12.70;99.90;;;11.79;100.00;97135.81;5030773;28;20410;-81
2022/10/22 00:02:32;;;;;;;6.03;2.20;;;12.70;99.90;;;11.79;100.00;97142.97;5030529;28;20406;-82
2022/10/22 00:04:58;;;;;;;7.00;2.17;;;12.70;99.90;;;11.79;100.00;97142.97;5030315;28;20972;-81
2022/10/22 00:07:24;;;;;;;9.48;2.05;;;12.70;99.90;;;11.76;100.00;97128.38;5030579;28;20430;-81
2022/10/22 00:09:50;;;;;;;5.47;2.00;;;12.70;99.90;;;11.77;100.00;97137.13;5030528;28;20899;-81
2022/10/22 00:12:17;;;;;;;4.97;1.90;;;12.70;99.90;;;11.75;100.00;97128.63;5029990;28;21022;-81
2022/10/22 00:14:44;;;;;;;5.32;1.90;;;12.60;99.90;;;11.75;100.00;97121.47;5029691;28;20411;-81
2022/10/22 00:17:22;;;;;;;6.90;2.08;;;12.60;99.90;;;11.72;100.00;97127.28;5028829;28;20461;-81
2022/10/22 00:19:48;;;;;;;9.25;2.00;;;12.60;99.90;;;11.69;100.00;97108.44;5022643;28;20406;-81
2022/10/22 00:22:14;;;;;;;8.40;2.40;;;12.60;99.90;;;11.69;100.00;97113.75;5030551;28;20488;-81
2022/10/22 00:24:40;;;;;;;19.92;2.88;;;12.60;99.90;;;11.70;100.00;97118.78;5029968;28;20406;-81
2022/10/22 00:27:08;;;;;;;5.82;2.20;;;12.60;99.90;;;11.80;100.00;97118.81;5030322;28;20759;-82
2022/10/22 00:29:34;;;;;;;6.25;2.38;;;12.60;99.90;;;11.77;100.00;97123.88;5030312;28;20435;-80
2022/10/22 00:32:03;;;;;;;9.85;2.38;;;12.60;99.90;;;11.77;100.00;97131.81;5035239;28;20493;-81
2022/10/22 00:34:29;;;;;;;7.22;2.38;;;12.60;99.90;;;11.70;100.00;97140.00;5036534;28;20911;-81
2022/10/22 00:36:55;;;;;;;4.50;1.80;;;12.60;99.90;;;11.73;100.00;97141.34;5035548;28;20407;-80
2022/10/22 00:39:24;;;;;;;4.07;1.80;;;12.60;99.90;;;11.75;100.00;97141.88;5035497;28;20926;-81
2022/10/22 00:41:52;;;;;;;5.10;2.10;;;12.60;99.90;;;11.75;100.00;97142.69;5036911;28;20546;-80
2022/10/22 00:45:15;;;;;;;8.25;2.10;;;12.70;99.90;;;11.77;100.00;97137.13;5036570;28;20780;-80
2022/10/22 00:47:49;;;;;;;6.32;1.90;;;12.70;99.90;;;11.77;100.00;97137.13;5036683;28;20430;-80
2022/10/22 00:50:22;;;;;;;7.50;2.42;;;12.60;99.90;;;11.74;100.00;97141.09;5036739;28;20422;-80
2022/10/22 00:52:48;;;;;;;4.15;1.70;;;12.60;99.90;;;11.73;100.00;97134.16;5036429;28;20445;-80
2022/10/22 00:55:15;;;;;;;8.95;2.13;;;12.60;99.90;;;11.68;100.00;97130.72;5036613;28;20460;-80
2022/10/22 00:57:41;;;;;;;4.50;2.10;;;12.50;99.90;;;11.69;100.00;97121.69;5036781;28;20398;-80
2022/10/22 01:00:09;;;;;;;6.40;2.10;;;12.60;99.90;;;11.72;100.00;97114.03;5036697;28;20489;-80
2022/10/22 01:02:35;;;;;;;5.93;1.90;;;12.60;99.90;;;11.70;100.00;97118.78;5036434;28;20413;-81
2022/10/22 01:05:04;;;;;;;8.73;2.10;;;12.60;99.90;;;11.72;100.00;97119.34;5036234;28;20402;-80
2022/10/22 01:07:30;;;;;;;4.95;2.15;;;12.60;99.90;;;11.72;100.00;97129.13;5036484;28;20504;-80
2022/10/22 01:10:07;;;;;;;6.18;2.30;;;12.60;99.90;;;11.66;100.00;97109.75;5036467;28;20419;-80
2022/10/22 01:12:45;;;;;;;5.05;2.15;;;12.50;99.90;;;11.59;100.00;97093.31;5036703;28;20398;-80
2022/10/22 01:15:23;;;;;;;6.28;2.00;;;12.50;99.90;;;11.64;100.00;97102.09;5036439;28;20816;-80
2022/10/22 01:17:58;;;;;;;6.13;1.80;;;12.50;99.90;;;11.55;100.00;97108.97;5036552;28;20791;-80
2022/10/22 01:20:50;;;;;;;4.25;2.00;;;12.50;99.90;;;11.57;100.00;97083.00;5036546;28;20416;-81
2022/10/22 01:23:55;;;;;;;6.40;2.22;;;12.50;99.90;;;11.59;100.00;97085.38;5036276;28;20395;-79
2022/10/22 01:26:33;;;;;;;5.35;2.17;;;12.50;99.90;;;11.62;100.00;97090.16;5036218;28;20770;-80
2022/10/22 01:29:09;;;;;;;6.25;2.00;;;12.50;99.90;;;11.62;100.00;97072.41;5036408;28;20494;-81
2022/10/22 01:31:43;;;;;;;6.82;2.30;;;12.50;99.90;;;11.59;100.00;97064.16;5036446;28;20930;-80
2022/10/22 01:34:13;;;;;;;2.92;1.90;;;12.50;99.90;;;11.65;100.00;97074.50;5035993;28;20399;-80
2022/10/22 01:36:40;;;;;;;6.40;1.90;;;12.50;99.90;;;11.67;100.00;97092.00;5036375;28;20490;-80
2022/10/22 01:39:07;;;;;;;6.10;1.98;;;12.60;99.90;;;11.67;100.00;97098.09;5036119;28;20399;-80
2022/10/22 01:41:34;;;;;;;6.05;2.20;;;12.60;99.90;;;11.76;100.00;97101.06;5034791;28;20403;-81
2022/10/22 01:44:01;;;;;;;6.57;2.30;;;12.60;99.90;;;11.76;100.00;97096.56;5031511;28;20413;-80
2022/10/22 01:46:28;;;;;;;3.80;2.15;;;12.70;99.90;;;11.76;100.00;97104.50;5033071;28;20888;-80
2022/10/22 01:49:15;;;;;;;4.63;1.83;;;12.70;99.90;;;11.83;100.00;97102.38;5033072;28;20399;-80
2022/10/22 01:51:58;;;;;;;8.23;2.10;;;12.70;99.90;;;11.88;100.00;97112.97;5033065;28;20935;-80
2022/10/22 01:54:36;;;;;;;4.28;2.05;;;12.80;99.90;;;11.85;100.00;97105.56;5032604;28;20882;-80
2022/10/22 01:57:13;;;;;;;6.57;1.77;;;12.80;99.90;;;11.94;100.00;97106.63;5033003;28;20399;-81
2022/10/22 01:59:54;;;;;;;5.60;1.92;;;12.80;99.90;;;11.90;100.00;97112.72;5033017;28;20907;-80
2022/10/22 02:02:35;;;;;;;5.60;2.00;;;12.80;99.90;;;11.87;100.00;97115.91;5033052;28;20453;-80
2022/10/22 02:05:08;;;;;;;3.55;1.88;;;12.80;99.90;;;11.87;100.00;97107.97;5032422;28;20407;-81
2022/10/22 02:07:40;;;;;;;6.38;1.60;;;12.70;99.90;;;11.86;100.00;97112.47;5032714;28;20796;-81
2022/10/22 02:10:09;;;;;;;5.30;1.70;;;12.70;99.90;;;11.87;100.00;97121.22;5032616;28;20426;-80
2022/10/22 02:12:37;;;;;;;3.58;1.88;;;12.80;99.90;;;11.86;100.00;97125.72;5032720;28;20395;-80
2022/10/22 02:15:07;;;;;;;4.00;1.75;;;12.70;99.90;;;11.95;100.00;97116.16;5032358;28;20403;-81
2022/10/22 02:17:37;;;;;;;3.97;1.98;;;12.80;99.90;;;11.92;100.00;97118.56;5032532;28;20457;-80
2022/10/22 02:20:09;;;;;;;4.77;1.80;;;12.80;99.90;;;11.93;100.00;97113.00;5032593;28;20403;-80
2022/10/22 02:22:35;;;;;;;8.13;2.00;;;12.80;99.90;;;11.82;100.00;97111.41;5032522;28;20403;-81
2022/10/22 02:25:02;;;;;;;4.18;1.77;;;12.70;99.90;;;11.79;100.00;97114.59;5032092;28;20410;-80
2022/10/22 02:27:31;;;;;;;5.18;2.00;;;12.70;99.90;;;11.75;100.00;97113.50;5032330;28;20411;-80
2022/10/22 02:30:03;;;;;;;6.45;1.90;;;12.60;99.90;;;11.59;100.00;97115.31;5032376;28;20410;-81
2022/10/22 02:32:38;;;;;;;5.88;2.10;;;12.50;99.90;;;11.65;100.00;97110.84;5032511;28;20460;-80
2022/10/22 02:35:09;;;;;;;4.50;2.00;;;12.50;99.90;;;11.68;100.00;97118.25;5030661;28;20463;-80
2022/10/22 02:37:35;;;;;;;2.95;1.77;;;12.60;99.90;;;11.80;100.00;97110.84;5032045;28;20762;-81
2022/10/22 02:40:02;;;;;;;6.43;1.90;;;12.60;99.90;;;11.89;100.00;97109.28;5032266;28;20457;-81
2022/10/22 02:42:28;;;;;;;3.28;1.85;;;12.70;99.90;;;11.82;100.00;97114.03;5032149;28;20441;-79
2022/10/22 02:44:54;;;;;;;4.35;1.80;;;12.70;99.90;;;11.85;100.00;97113.53;5031599;28;20407;-80
2022/10/22 02:47:20;;;;;;;5.57;2.00;;;12.70;99.90;;;11.82;100.00;97114.03;5032056;28;20411;-81
2022/10/22 02:49:47;;;;;;;5.75;1.90;;;12.70;99.90;;;11.84;100.00;97125.19;5031957;28;20490;-81
2022/10/22 02:52:13;;;;;;;5.80;1.85;;;12.60;99.90;;;11.72;100.00;97108.72;5032036;28;20396;-81
2022/10/22 02:54:39;;;;;;;6.72;1.80;;;12.60;99.90;;;11.69;100.00;97119.84;5029796;28;20481;-80
2022/10/22 02:57:05;;;;;;;2.92;1.73;;;12.60;99.90;;;11.68;100.00;97115.59;5031885;28;20898;-81
2022/10/22 02:59:31;;;;;;;6.43;1.90;;;12.50;99.90;;;11.71;100.00;97117.75;5031896;28;20411;-80
2022/10/22 03:01:57;;;;;;;4.38;1.80;;;12.50;99.90;;;11.70;100.00;97126.75;5031814;28;20813;-80
2022/10/22 03:04:22;;;;;;;7.07;2.23;;;12.60;99.90;;;11.80;100.00;97108.19;5031374;28;20529;-80
2022/10/22 03:06:50;;;;;;;4.93;1.90;;;12.60;99.90;;;11.81;100.00;97099.19;5031473;28;20414;-82
2022/10/22 03:09:16;;;;;;;3.72;1.83;;;12.60;99.90;;;11.74;100.00;97100.47;5031739;28;20486;-80
2022/10/22 03:11:42;;;;;;;6.07;1.97;;;12.60;99.90;;;11.68;100.00;97098.91;5031625;28;20466;-80
2022/10/22 03:14:07;;;;;;;7.32;1.95;;;12.50;99.90;;;11.66;100.00;97096.50;5030002;28;21022;-80
2022/10/22 03:16:33;;;;;;;3.45;1.80;;;12.50;99.90;;;11.70;100.00;97099.44;5031386;28;20438;-80
2022/10/22 03:19:00;;;;;;;4.88;1.85;;;12.60;99.90;;;11.77;100.00;97094.69;5031450;28;20415;-82
2022/10/22 03:21:33;;;;;;;4.57;1.80;;;12.50;99.90;;;11.65;100.00;97092.28;5031467;28;20399;-81
2022/10/22 03:24:01;;;;;;;5.00;1.80;;;12.50;99.90;;;11.73;100.00;97088.31;5031157;28;20402;-80
2022/10/22 03:26:28;;;;;;;4.28;1.70;;;12.60;99.90;;;11.68;100.00;97083.00;5031343;28;20496;-80
2022/10/22 03:28:54;;;;;;;7.57;1.90;;;12.50;99.90;;;11.62;100.00;97079.56;5031301;28;20458;-80
2022/10/22 03:31:20;;;;;;;5.22;1.67;;;12.50;99.90;;;11.60;100.00;97084.31;5031289;28;20492;-81
2022/10/22 03:33:46;;;;;;;7.43;1.77;;;12.50;99.90;;;11.58;100.00;97086.41;5030748;28;20419;-81
2022/10/22 03:36:12;;;;;;;6.40;1.92;;;12.50;99.90;;;11.61;100.00;97083.25;5031038;28;20490;-80
2022/10/22 03:38:39;;;;;;;7.35;2.10;;;12.50;99.90;;;11.63;100.00;97081.16;5030937;28;20419;-81
2022/10/22 03:41:07;;;;;;;5.57;1.80;;;12.50;99.90;;;11.72;100.00;97079.56;5030978;28;20407;-81
2022/10/22 03:43:34;;;;;;;4.10;1.70;;;12.50;99.90;;;11.72;100.00;97081.41;5030569;28;20876;-81
2022/10/22 03:46:00;;;;;;;4.13;1.95;;;12.60;99.90;;;11.73;100.00;97083.00;5030819;28;20411;-80
2022/10/22 03:48:26;;;;;;;5.82;1.98;;;12.60;99.90;;;11.69;100.00;97093.34;5030821;28;20403;-80
2022/10/22 03:50:52;;;;;;;5.13;2.10;;;12.60;99.90;;;11.74;100.00;97109.25;5029506;28;20427;-80
2022/10/22 03:53:18;;;;;;;4.82;2.00;;;12.60;99.90;;;11.71;100.00;97109.00;5029131;28;20773;-81
2022/10/22 03:55:44;;;;;;;3.03;1.90;;;12.60;99.90;;;11.85;100.00;97112.72;5030765;28;20438;-80
2022/10/22 03:58:11;;;;;;;6.20;1.98;;;12.60;99.90;;;11.80;100.00;97099.47;5030793;28;20911;-81
2022/10/22 04:00:37;;;;;;;8.10;2.00;;;12.70;99.90;;;11.79;100.00;97096.03;5030766;28;20413;-80
2022/10/22 04:03:03;;;;;;;4.40;1.85;;;12.60;99.90;;;11.74;100.00;97092.53;5030344;28;20781;-80
2022/10/22 04:05:31;;;;;;;4.20;1.80;;;12.60;99.90;;;11.85;100.00;97084.34;5029913;28;20431;-81
2022/10/22 04:07:57;;;;;;;3.73;1.70;;;12.70;99.90;;;11.80;100.00;97080.91;5030534;28;20821;-81
2022/10/22 04:10:23;;;;;;;5.57;1.80;;;12.60;99.90;;;11.73;100.00;97089.06;5030509;28;20414;-81
2022/10/22 04:12:49;;;;;;;6.95;2.13;;;12.60;99.90;;;11.77;100.00;97108.75;5030172;28;20893;-81
2022/10/22 04:15:16;;;;;;;2.40;1.60;;;12.60;99.90;;;11.80;100.00;97128.66;5027229;28;20901;-80
2022/10/22 04:17:42;;;;;;;2.95;1.77;;;12.60;99.90;;;11.80;100.00;97112.75;5021175;28;20435;-81
2022/10/22 04:20:10;;;;;;;3.10;1.60;;;12.70;99.90;;;11.76;100.00;97115.13;5018986;28;20455;-81
2022/10/22 04:22:36;;;;;;;3.85;1.85;;;12.60;99.90;;;11.74;100.00;97127.81;5020384;28;20490;-81
2022/10/22 04:25:03;;;;;;;4.72;1.60;;;12.60;99.90;;;11.68;100.00;97123.56;5020316;28;20419;-81
2022/10/22 04:27:31;;;;;;;6.55;1.77;;;12.50;99.90;;;11.61;100.00;97115.06;5018247;28;20404;-81
2022/10/22 04:29:57;;;;;;;6.00;1.90;;;12.40;99.90;;;11.57;100.00;97117.47;5026841;28;20441;-83
2022/10/22 04:32:24;;;;;;;6.20;1.92;;;12.40;99.90;;;11.58;100.00;97113.72;5028844;28;20414;-81
2022/10/22 04:34:50;;;;;;;12.05;1.88;;;12.40;99.90;;;11.61;100.00;97117.72;5027772;28;20487;-81
2022/10/22 04:37:16;;;;;;;7.60;1.90;;;12.50;99.90;;;11.45;100.00;97114.25;5021682;28;20495;-81
2022/10/22 04:39:42;;;;;;;4.93;1.73;;;12.30;99.90;;;11.45;100.00;97111.59;5028251;28;20418;-80
2022/10/22 04:42:08;;;;;;;4.93;1.75;;;12.40;99.90;;;11.56;100.00;97120.38;5027896;28;20414;-81
2022/10/22 04:44:34;;;;;;;3.10;1.67;;;12.50;99.90;;;11.62;100.00;97135.22;5029657;28;20411;-81
2022/10/22 04:47:00;;;;;;;7.00;1.77;;;12.40;99.90;;;11.59;100.00;97147.13;5028225;28;20442;-80
2022/10/22 04:49:27;;;;;;;6.35;2.08;;;12.40;99.90;;;11.56;100.00;97149.53;5028586;28;20522;-81
2022/10/22 04:51:53;;;;;;;4.07;1.73;;;12.40;99.90;;;11.59;100.00;97146.34;5023472;28;20426;-81
2022/10/22 04:54:19;;;;;;;4.97;1.85;;;12.40;99.90;;;11.53;100.00;97137.59;5029255;28;20431;-80
2022/10/22 04:56:45;;;;;;;7.57;1.80;;;12.40;99.90;;;11.47;100.00;97137.84;5029586;28;20461;-80
2022/10/22 04:59:11;;;;;;;5.57;1.88;;;12.30;99.90;;;11.67;100.00;97132.56;5026872;28;20453;-75
2022/10/22 05:01:40;;;;;;;5.50;1.80;;;12.50;99.90;;;11.64;100.00;97128.59;5027476;28;20726;-76
2022/10/22 05:04:08;;;;;;;4.70;1.60;;;12.50;99.90;;;11.72;100.00;97140.53;5025006;28;20430;-77
2022/10/22 05:06:36;;;;;;;5.38;1.80;;;12.60;99.90;;;11.65;100.00;97137.34;5018393;28;20828;-79
2022/10/22 05:09:05;;;;;;;9.07;1.70;;;12.50;99.90;;;11.75;100.00;97139.22;5036115;28;20439;-79
2022/10/22 05:11:33;;;;;;;4.00;1.97;;;12.50;99.90;;;11.70;100.00;97139.22;5018700;28;20507;-79
2022/10/22 05:14:02;;;;;;;2.90;1.50;;;12.50;99.90;;;11.65;100.00;97142.66;5020033;28;20403;-79
2022/10/22 05:16:29;;;;;;;4.55;1.70;;;12.50;99.90;;;11.60;100.00;97147.94;5020005;28;20404;-80
2022/10/22 05:18:58;;;;;;;4.83;1.70;;;12.50;99.90;;;11.67;100.00;97142.38;5021987;28;20937;-79
2022/10/22 05:21:24;;;;;;;4.53;1.80;;;12.50;99.90;;;11.64;100.00;97147.16;5023292;28;20391;-78
2022/10/22 05:23:53;;;;;;;4.47;1.67;;;12.50;99.90;;;11.71;100.00;97144.25;5023713;28;20496;-81
2022/10/22 05:26:21;;;;;;;3.78;2.05;;;12.50;99.90;;;11.68;100.00;97147.41;5022152;28;20403;-80
2022/10/22 05:28:48;;;;;;;3.25;2.00;;;12.50;99.90;;;11.59;100.00;97167.53;5018522;28;20404;-79
2022/10/22 05:31:15;;;;;;;3.40;1.75;;;12.50;99.90;;;11.56;100.00;97173.41;5032881;28;20645;-77
2022/10/22 05:33:42;;;;;;;3.72;1.50;;;12.40;99.90;;;11.64;100.00;97170.22;5031739;28;20399;-78
2022/10/22 05:36:12;;;;;;;5.25;1.85;;;12.50;99.90;;;11.55;100.00;97185.84;5033033;28;20457;-80
2022/10/22 05:38:38;;;;;;;5.80;2.17;;;12.40;99.90;;;11.56;100.00;97191.94;5046797;22;20484;-72
2022/10/22 05:41:09;;;;;;;3.88;1.98;;;12.40;99.90;;;11.55;100.00;97203.59;5033254;28;20917;-70
2022/10/22 05:43:36;;;;;;;4.22;2.08;;;12.40;99.90;;;11.56;100.00;97210.50;5032960;28;21124;-71
2022/10/22 05:46:03;;;;;;;4.88;1.90;;;12.40;99.90;;;11.58;100.00;97224.28;5033274;28;20415;-70
2022/10/22 05:48:29;;;;;;;4.80;1.70;;;12.50;99.90;;;11.58;100.00;97224.28;5033070;28;20410;-70
2022/10/22 05:50:55;;;;;;;7.32;2.13;;;12.50;99.90;;;11.52;100.00;97231.41;5033045;28;20465;-70
2022/10/22 05:53:21;;;;;;;5.22;2.03;;;12.40;99.90;;;11.48;100.00;97235.66;5026772;28;20435;-70
2022/10/22 05:55:47;;;;;;;4.45;2.15;;;12.40;99.90;;;11.54;100.00;97252.38;5024357;28;20509;-70
2022/10/22 05:58:14;;;;;;;3.80;2.00;;;12.40;99.90;;;11.53;100.00;97250.78;5032772;28;20534;-69
2022/10/22 06:00:40;;;;;;;3.00;1.83;;;12.40;99.90;;;11.52;100.00;97241.22;5023325;28;20411;-70
2022/10/22 06:03:06;;;;;;;3.23;2.10;;;12.40;99.90;;;11.52;100.00;97249.97;5022016;28;20493;-70
2022/10/22 06:05:35;;;;;;;5.88;2.30;;;12.40;99.90;;;11.52;100.00;97243.88;5031387;28;20418;-70
2022/10/22 06:08:01;;;;;;;10.65;2.17;;;12.40;99.90;;;11.54;100.00;97255.03;5031450;28;20414;-70
2022/10/22 06:10:28;;;;;;;3.55;1.73;;;12.40;99.90;;;11.61;100.00;97252.94;5020751;28;20922;-70
2022/10/22 06:12:53;;;;;;;9.65;2.10;;;12.40;99.90;;;11.57;100.00;97262.47;5021737;28;20934;-70
2022/10/22 06:15:21;;;;;;;8.20;1.95;;;12.40;99.90;;;11.58;100.00;97272.78;5026436;28;20443;-70
2022/10/22 06:17:47;;;;;;;4.05;2.03;;;12.40;99.90;;;11.58;100.00;97266.69;5025466;28;20797;-70
2022/10/22 06:20:14;;;;;;;5.85;1.90;;;12.50;99.90;;;11.51;100.00;97266.94;5024010;28;20408;-70
2022/10/22 06:22:40;;;;;;;3.47;1.75;;;12.40;99.90;;;11.62;100.00;97268.59;5024209;28;20403;-70
2022/10/22 06:25:07;;;;;;;4.90;1.80;;;12.40;99.90;;;11.60;100.00;97267.22;5022696;28;20480;-71
2022/10/22 06:27:33;;;;;;;3.53;1.92;;;12.50;99.90;;;11.58;100.00;97262.19;5021346;28;20910;-71
2022/10/22 06:29:59;;;;;;;4.10;2.00;;;12.50;99.90;;;11.54;100.00;97276.22;5021180;28;20911;-70
2022/10/22 06:32:26;;;;;;;5.13;2.25;;;12.40;99.90;;;11.57;100.00;97281.03;5022841;28;20464;-69
2022/10/22 06:34:52;;;;;;;7.47;1.90;;;12.40;99.90;;;11.57;100.00;97279.19;5020494;28;20416;-72
2022/10/22 06:37:18;;;;;;;2.88;1.67;;;12.50;99.90;;;11.67;100.00;97282.91;5021899;28;20764;-70
2022/10/22 06:39:44;;;;;;;3.67;1.65;;;12.50;99.90;;;11.70;100.00;97287.69;5022652;28;20439;-70
2022/10/22 06:42:09;;;;;;;4.10;1.90;;;12.50;99.90;;;11.65;100.00;97293.78;5020438;28;20455;-70
2022/10/22 06:44:35;;;;;;;4.63;1.60;;;12.50;99.90;;;11.66;100.00;97303.31;5031178;28;20800;-69
2022/10/22 06:47:01;;;;;;;3.00;1.83;;;12.50;99.90;;;11.65;100.00;97293.78;5031974;28;20415;-69
2022/10/22 06:49:29;;;;;;;6.55;2.00;;;12.50;99.90;;;11.68;100.00;97298.56;5031867;28;20417;-69
2022/10/22 06:51:54;;;;;;;2.65;1.60;;;12.50;99.90;;;11.72;100.00;97301.50;5031802;28;20423;-70
2022/10/22 06:54:21;;;;;;;3.33;1.77;;;12.60;99.90;;;11.70;100.00;97311.56;5031265;28;20521;-70
2022/10/22 06:56:47;;;;;;;2.28;1.58;;;12.50;99.90;;;11.70;100.00;97315.00;5031834;28;20464;-70
2022/10/22 06:59:13;;;;;;;2.87;1.70;;;12.60;99.90;;;11.70;100.00;97312.34;5031732;28;20502;-70
2022/10/22 07:01:39;;;;;;;4.47;1.80;;;12.60;99.90;;;11.72;100.00;97317.41;5031915;28;20644;-69
2022/10/22 07:04:07;;;;;;;3.10;1.65;;;12.60;99.90;;;11.77;100.00;97320.09;5031464;28;20407;-70
2022/10/22 07:06:34;;;;;;;5.93;1.77;;;12.60;99.90;;;11.80;100.00;97338.16;5031585;28;20403;-70
2022/10/22 07:09:00;;;;;;;5.55;1.98;;;12.60;99.90;;;11.80;100.00;97336.28;5031748;28;20403;-70
2022/10/22 07:11:29;;;;;;;4.38;1.70;;;12.70;99.90;;;11.83;100.00;97340.28;5031646;28;20422;-69
2022/10/22 07:13:57;;;;;;;3.03;1.77;;;12.70;99.90;;;11.88;100.00;97335.78;5031309;28;20514;-70
2022/10/22 07:16:24;;;;;;;3.20;1.65;;;12.80;99.90;;;11.92;100.00;97339.50;5031460;28;20761;-69
2022/10/22 07:18:50;;;;;;;4.93;1.70;;;12.80;99.90;;;11.93;100.00;97345.63;5031260;28;20785;-69
2022/10/22 07:21:19;;;;;;;3.47;1.77;;;12.80;99.90;;;11.98;100.00;97341.13;5031526;28;20414;-69
2022/10/22 07:23:46;;;;;;;3.17;1.55;;;12.80;99.90;;;12.08;100.00;97339.56;5029823;28;20410;-70
2022/10/22 07:26:15;;;;;;;3.55;1.50;;;12.90;99.90;;;12.17;100.00;97341.44;5031261;28;20486;-70
2022/10/22 07:28:41;;;;;;;3.35;1.40;;;12.90;99.90;;;11.99;100.00;97349.88;5031253;28;20402;-70
2022/10/22 07:31:10;;;;;;;2.50;1.55;;;12.80;99.90;;;12.08;100.00;97347.53;5031203;28;20418;-70
2022/10/22 07:33:37;;;;;;;2.45;1.50;;;12.90;99.90;;;12.18;100.00;97352.88;5030922;28;20406;-70
2022/10/22 07:36:06;;;;;;;3.20;1.70;;;12.90;99.90;;;12.13;100.00;97353.63;5031205;28;20452;-70
2022/10/22 07:38:32;;;;;;;2.15;1.50;;;12.90;99.90;;;12.12;100.00;97357.34;5030921;28;20761;-70
2022/10/22 07:41:00;;;;;;;4.47;1.67;;;13.00;99.90;;;12.19;100.00;97363.19;5030325;28;20488;-70
2022/10/22 07:43:26;;;;;;;11.50;1.90;;;13.00;99.90;;;12.11;100.00;97361.06;5030725;28;20411;-71
2022/10/22 07:45:54;;;;;;;4.65;1.80;;;13.00;99.90;;;12.10;100.00;97359.47;5030871;28;20411;-70
2022/10/22 07:48:20;;;;;;;4.97;1.58;;;13.00;99.90;;;11.99;100.00;97363.16;5031027;28;20410;-70
2022/10/22 07:50:48;;;;;;;3.60;1.60;;;12.90;99.90;;;11.99;100.00;97366.59;5030968;28;20796;-70
2022/10/22 07:53:14;;;;;;;4.50;1.70;;;12.80;99.90;;;12.07;100.00;97367.16;5030342;28;20461;-70
2022/10/22 07:55:40;;;;;;;3.57;1.60;;;12.90;99.90;;;12.16;100.00;97371.69;5030866;28;20415;-70
2022/10/22 07:58:07;;;;;;;2.20;1.60;;;13.00;99.90;;;12.21;100.00;97369.06;5030908;28;20403;-71
2022/10/22 08:00:33;;;;;;;2.63;1.63;;;13.00;99.90;;;12.27;100.00;97367.19;5030786;28;20434;-70
2022/10/22 08:02:59;;;;;;;4.67;1.50;;;13.10;99.90;;;12.34;100.00;97373.84;5030443;28;20430;-71
2022/10/22 08:05:25;;;;;;;3.42;1.90;;;13.10;99.90;;;12.47;100.00;97371.78;5030553;28;20903;-70
2022/10/22 08:07:51;;;;;;;3.88;1.40;;;13.20;99.90;;;12.57;100.00;97380.53;5030693;28;20414;-70
2022/10/22 08:10:17;;;;;;;6.00;1.50;;;13.30;99.90;;;12.47;100.00;97383.19;5030618;28;20403;-71
2022/10/22 08:12:43;;;;;;;6.30;1.60;;;13.30;99.90;;;12.40;100.00;97380.75;5030449;28;20493;-70
2022/10/22 08:15:11;;;;;;;2.15;1.48;;;13.30;99.90;;;12.38;100.00;97384.75;5030203;28;20403;-70
2022/10/22 08:17:37;;;;;;;3.43;1.50;;;13.20;99.90;;;12.44;100.00;97389.00;5030521;28;20403;-70
2022/10/22 08:20:03;;;;;;;3.63;1.42;;;13.20;99.90;;;12.39;100.00;97389.81;5030505;28;20418;-71
2022/10/22 08:22:29;;;;;;;3.70;1.87;;;13.30;99.90;;;12.32;100.00;97386.59;5029162;28;20484;-69
2022/10/22 08:24:55;;;;;;;5.43;1.73;;;13.20;99.90;;;12.35;100.00;97387.91;5030028;28;20403;-69
2022/10/22 08:27:21;;;;;;;2.33;1.38;;;13.20;99.90;;;12.43;100.00;97387.41;5030362;28;20403;-69
2022/10/22 08:29:47;;;;;;;4.38;1.60;;;13.20;99.90;;;12.37;100.00;97396.44;5030366;28;20457;-69
2022/10/22 08:32:14;;;;;;;3.28;1.45;;;13.20;99.90;;;12.41;100.00;97390.31;5030252;28;20488;-69
2022/10/22 08:34:40;;;;;;;5.18;1.80;;;13.30;99.90;;;12.51;100.00;97394.88;5029883;28;20406;-69
2022/10/22 08:37:07;;;;;;;4.85;1.65;;;13.30;99.90;;;12.85;100.00;97389.88;5030333;28;20889;-69
2022/10/22 08:39:33;;;;;;;5.82;1.80;;;13.60;99.90;;;12.88;100.00;97391.97;5030258;28;20407;-69
2022/10/22 08:42:16;;;;;;;2.92;1.42;;;13.70;99.90;;;12.97;100.00;97389.59;5030385;28;20395;-69
2022/10/22 08:45:01;;;;;;;3.60;1.50;;;13.80;99.90;;;13.07;100.00;97390.41;5029812;28;20753;-69
2022/10/22 08:47:47;;;;;;;1.93;1.30;;;13.90;99.90;;;13.23;100.00;97390.44;5030241;28;20464;-69
2022/10/22 08:50:22;;;;;;;6.95;1.60;;;14.00;99.90;;;13.11;100.00;97391.44;5030172;28;20446;-69
2022/10/22 08:52:55;;;;;;;2.25;1.40;;;14.00;99.90;;;13.12;100.00;97390.41;5032040;28;20435;-70
2022/10/22 08:55:23;;;;;;;2.00;1.30;;;14.00;99.90;;;13.29;100.00;97392.81;5034238;28;20399;-69
2022/10/22 08:57:57;;;;;;;3.17;1.50;;;14.00;99.90;;;13.39;100.00;97386.66;5034016;28;20911;-69
2022/10/22 09:00:30;;;;;;;6.70;1.48;;;14.20;99.90;;;13.37;100.00;97389.59;5033159;28;20417;-70
2022/10/22 09:03:22;;;;;;;4.68;1.23;;;14.20;99.90;;;13.41;100.00;97395.97;5033718;28;20450;-70
2022/10/22 09:05:57;;;;;;;5.57;1.38;;;14.20;99.90;;;13.54;100.00;97394.59;5034036;28;20395;-70
2022/10/22 09:08:24;;;;;;;3.55;1.33;;;14.40;99.90;;;13.65;100.00;97400.72;5033977;28;20395;-70
2022/10/22 09:10:57;;;;;;;3.83;1.10;;;14.50;99.90;;;13.98;100.00;97405.41;5033791;28;20422;-70
2022/10/22 09:13:23;;;;;;;2.40;1.10;;;14.70;99.90;;;13.88;100.00;97403.56;5032354;28;20434;-69
2022/10/22 09:15:54;;;;;;;3.63;1.20;;;14.70;99.90;;;14.03;100.00;97405.38;5033899;28;20414;-69
2022/10/22 09:18:34;;;;;;;6.05;1.15;;;14.80;99.90;;;14.11;100.00;97393.38;5033790;28;20478;-69
2022/10/22 09:21:16;;;;;;;2.10;1.10;;;14.90;99.90;;;14.26;100.00;97403.94;5033949;28;20756;-69
2022/10/22 09:24:01;;;;;;;1.90;0.90;;;14.90;99.90;;;14.38;100.00;97404.44;5033517;28;20406;-69
2022/10/22 09:26:27;;;;;;;2.25;1.30;;;15.10;99.90;;;14.62;100.00;97412.56;5033607;28;20768;-70
2022/10/22 09:28:58;;;;;;;1.90;1.02;;;15.30;99.90;;;14.66;100.00;97411.72;5033469;28;20532;-70
2022/10/22 09:31:28;;;;;;;2.10;1.10;;;15.30;99.90;;;14.68;100.00;97411.47;5033577;28;20442;-70
2022/10/22 09:33:58;;;;;;;3.10;0.98;;;15.40;99.90;;;14.72;100.00;97412.53;5033145;28;20403;-70
2022/10/22 09:36:26;;;;;;;1.90;1.10;;;15.50;99.90;;;14.87;100.00;97417.75;5033490;28;20487;-70
2022/10/22 09:38:52;;;;;;;3.08;1.00;;;15.50;99.90;;;15.01;100.00;97413.38;5033315;28;20418;-70
2022/10/22 09:41:23;;;;;;;3.55;0.90;;;15.70;99.90;;;15.11;100.00;97428.47;5033406;28;20391;-70
2022/10/22 09:43:50;;;;;;;1.98;0.90;;;15.80;99.90;;;15.20;100.00;97424.13;5032913;28;20402;-70
2022/10/22 09:46:18;;;;;;;4.00;0.85;;;15.90;99.90;;;15.27;100.00;97427.28;5031966;28;20434;-69
2022/10/22 09:48:50;;;;;;;2.08;1.10;;;15.90;99.90;;;15.18;100.00;97428.19;5033167;28;20449;-69
2022/10/22 09:51:21;;;;;;;4.78;1.10;;;15.90;99.90;;;15.21;100.00;97425.72;5033202;28;20777;-70
2022/10/22 09:53:56;;;;;;;4.93;1.00;;;16.00;99.90;;;15.19;100.00;97429.75;5032741;28;20427;-70
2022/10/22 09:56:27;;;;;;;2.95;1.08;;;16.00;99.90;;;15.20;100.00;97434.00;5032996;28;20490;-70
2022/10/22 09:58:56;;;;;;;1.17;0.90;;;16.00;99.90;;;15.43;100.00;97436.75;5033002;28;20761;-70
2022/10/22 10:01:27;;;;;;;1.38;0.90;;;16.10;99.90;;;15.50;100.00;97437.22;5033052;28;20473;-70
2022/10/22 10:04:00;;;;;;;2.30;1.00;;;16.20;99.90;;;15.48;100.00;97446.59;5031524;28;20430;-69
2022/10/22 10:06:33;;;;;;;5.75;1.15;;;16.20;99.90;;;15.52;100.00;97446.81;5032815;28;20399;-69
2022/10/22 10:09:05;;;;;;;1.90;0.90;;;16.30;99.90;;;15.68;100.00;97449.09;5032932;28;20399;-70
2022/10/22 10:11:41;;;;;;;2.90;1.00;;;16.40;99.90;;;15.64;100.00;97455.25;5032772;28;20918;-69
2022/10/22 10:14:14;;;;;;;5.53;1.00;;;16.40;99.90;;;15.78;100.00;97454.34;5032336;28;20403;-69
2022/10/22 10:16:56;;;;;;;3.05;0.90;;;16.50;99.90;;;15.76;100.00;97461.81;5032713;28;20403;-70
2022/10/22 10:19:37;;;;;;;1.63;0.98;;;16.60;99.90;;;15.77;100.00;97459.94;5032642;28;20764;-70